sensor_id;sensor_type;location;lat;lon;timestamp;P1;durP1;ratioP1;P2;durP2;ratioP2
14141;SDS011;7151;52.246;4.820;2022-07-23T00:00:29;6.93;;;2.23;;
14141;SDS011;7151;52.246;4.820;2022-07-23T00:02:55;2.97;;;1.70;;
14141;SDS011;7151;52.246;4.820;2022-07-23T00:05:20;3.07;;;1.83;;
14141;SDS011;7151;52.246;4.820;2022-07-23T00:07:46;3.13;;;2.07;;
14141;SDS011;7151;52.246;4.820;2022-07-23T00:10:12;1.87;;;1.67;;
14141;SDS011;7151;52.246;4.820;2022-07-23T00:12:38;2.53;;;2.13;;
14141;SDS011;7151;52.246;4.820;2022-07-23T00:15:04;3.53;;;1.90;;
14141;SDS011;7151;52.246;4.820;2022-07-23T00:17:31;5.30;;;1.60;;
14141;SDS011;7151;52.246;4.820;2022-07-23T00:19:57;2.90;;;1.77;;
14141;SDS011;7151;52.246;4.820;2022-07-23T00:22:22;2.90;;;1.77;;
14141;SDS011;7151;52.246;4.820;2022-07-23T00:24:48;1.97;;;1.73;;
14141;SDS011;7151;52.246;4.820;2022-07-23T00:27:14;3.03;;;1.80;;
14141;SDS011;7151;52.246;4.820;2022-07-23T00:29:39;2.30;;;1.53;;
14141;SDS011;7151;52.246;4.820;2022-07-23T00:32:05;3.27;;;1.67;;
14141;SDS011;7151;52.246;4.820;2022-07-23T00:34:31;1.87;;;1.43;;
14141;SDS011;7151;52.246;4.820;2022-07-23T00:36:56;2.73;;;1.90;;
14141;SDS011;7151;52.246;4.820;2022-07-23T00:39:22;3.13;;;1.77;;
14141;SDS011;7151;52.246;4.820;2022-07-23T00:41:48;2.87;;;1.73;;
14141;SDS011;7151;52.246;4.820;2022-07-23T00:44:25;3.30;;;1.60;;
14141;SDS011;7151;52.246;4.820;2022-07-23T00:46:52;2.70;;;1.57;;
14141;SDS011;7151;52.246;4.820;2022-07-23T00:49:24;2.13;;;1.77;;
14141;SDS011;7151;52.246;4.820;2022-07-23T00:51:54;2.47;;;1.63;;
14141;SDS011;7151;52.246;4.820;2022-07-23T00:54:21;2.00;;;1.80;;
14141;SDS011;7151;52.246;4.820;2022-07-23T00:56:48;1.67;;;1.57;;
14141;SDS011;7151;52.246;4.820;2022-07-23T00:59:14;4.63;;;2.00;;
14141;SDS011;7151;52.246;4.820;2022-07-23T01:01:40;3.33;;;1.80;;
14141;SDS011;7151;52.246;4.820;2022-07-23T01:04:06;2.40;;;1.73;;
14141;SDS011;7151;52.246;4.820;2022-07-23T01:06:34;3.50;;;1.80;;
14141;SDS011;7151;52.246;4.820;2022-07-23T01:09:02;3.00;;;1.50;;
14141;SDS011;7151;52.246;4.820;2022-07-23T01:11:29;2.47;;;1.80;;
14141;SDS011;7151;52.246;4.820;2022-07-23T01:13:56;1.63;;;1.30;;
14141;SDS011;7151;52.246;4.820;2022-07-23T01:16:21;3.23;;;1.53;;
14141;SDS011;7151;52.246;4.820;2022-07-23T01:18:47;2.27;;;1.63;;
14141;SDS011;7151;52.246;4.820;2022-07-23T01:21:12;2.03;;;1.60;;
14141;SDS011;7151;52.246;4.820;2022-07-23T01:23:39;6.43;;;1.57;;
14141;SDS011;7151;52.246;4.820;2022-07-23T01:26:05;1.90;;;1.60;;
14141;SDS011;7151;52.246;4.820;2022-07-23T01:28:30;1.97;;;1.60;;
14141;SDS011;7151;52.246;4.820;2022-07-23T01:30:56;4.13;;;1.80;;
14141;SDS011;7151;52.246;4.820;2022-07-23T01:33:21;2.50;;;1.40;;
14141;SDS011;7151;52.246;4.820;2022-07-23T01:35:47;1.50;;;1.40;;
14141;SDS011;7151;52.246;4.820;2022-07-23T01:38:12;2.70;;;1.77;;
14141;SDS011;7151;52.246;4.820;2022-07-23T01:40:38;2.27;;;1.30;;
14141;SDS011;7151;52.246;4.820;2022-07-23T01:43:03;2.10;;;1.50;;
14141;SDS011;7151;52.246;4.820;2022-07-23T01:45:29;2.90;;;1.40;;
14141;SDS011;7151;52.246;4.820;2022-07-23T01:47:55;4.60;;;1.80;;
14141;SDS011;7151;52.246;4.820;2022-07-23T01:50:20;3.10;;;1.53;;
14141;SDS011;7151;52.246;4.820;2022-07-23T01:52:46;2.83;;;1.50;;
14141;SDS011;7151;52.246;4.820;2022-07-23T01:55:11;2.23;;;1.53;;
14141;SDS011;7151;52.246;4.820;2022-07-23T01:57:37;3.20;;;1.30;;
14141;SDS011;7151;52.246;4.820;2022-07-23T02:00:03;2.07;;;1.90;;
14141;SDS011;7151;52.246;4.820;2022-07-23T02:02:29;2.00;;;1.50;;
14141;SDS011;7151;52.246;4.820;2022-07-23T02:04:54;1.77;;;1.47;;
14141;SDS011;7151;52.246;4.820;2022-07-23T02:07:20;4.20;;;1.40;;
14141;SDS011;7151;52.246;4.820;2022-07-23T02:09:45;2.37;;;1.40;;
14141;SDS011;7151;52.246;4.820;2022-07-23T02:12:11;2.10;;;1.60;;
14141;SDS011;7151;52.246;4.820;2022-07-23T02:14:37;3.97;;;1.63;;
14141;SDS011;7151;52.246;4.820;2022-07-23T02:17:02;1.80;;;1.27;;
14141;SDS011;7151;52.246;4.820;2022-07-23T02:19:28;3.13;;;1.50;;
14141;SDS011;7151;52.246;4.820;2022-07-23T02:21:54;2.27;;;1.37;;
14141;SDS011;7151;52.246;4.820;2022-07-23T02:24:19;1.43;;;1.33;;
14141;SDS011;7151;52.246;4.820;2022-07-23T02:26:45;1.73;;;1.63;;
14141;SDS011;7151;52.246;4.820;2022-07-23T02:29:10;2.33;;;1.27;;
14141;SDS011;7151;52.246;4.820;2022-07-23T02:31:36;2.97;;;1.87;;
14141;SDS011;7151;52.246;4.820;2022-07-23T02:34:02;1.97;;;1.57;;
14141;SDS011;7151;52.246;4.820;2022-07-23T02:36:27;1.77;;;1.37;;
14141;SDS011;7151;52.246;4.820;2022-07-23T02:38:53;1.80;;;1.47;;
14141;SDS011;7151;52.246;4.820;2022-07-23T02:41:18;3.77;;;2.00;;
14141;SDS011;7151;52.246;4.820;2022-07-23T02:43:44;2.50;;;1.60;;
14141;SDS011;7151;52.246;4.820;2022-07-23T02:46:09;1.07;;;0.97;;
14141;SDS011;7151;52.246;4.820;2022-07-23T02:48:35;1.53;;;1.40;;
14141;SDS011;7151;52.246;4.820;2022-07-23T02:51:00;2.67;;;1.60;;
14141;SDS011;7151;52.246;4.820;2022-07-23T02:53:26;2.07;;;1.50;;
14141;SDS011;7151;52.246;4.820;2022-07-23T02:55:51;2.10;;;1.50;;
14141;SDS011;7151;52.246;4.820;2022-07-23T02:58:17;1.50;;;1.27;;
14141;SDS011;7151;52.246;4.820;2022-07-23T03:00:43;3.77;;;1.37;;
14141;SDS011;7151;52.246;4.820;2022-07-23T03:03:09;3.73;;;1.40;;
14141;SDS011;7151;52.246;4.820;2022-07-23T03:05:34;2.07;;;1.57;;
14141;SDS011;7151;52.246;4.820;2022-07-23T03:08:00;2.20;;;1.23;;
14141;SDS011;7151;52.246;4.820;2022-07-23T03:10:26;2.47;;;1.43;;
14141;SDS011;7151;52.246;4.820;2022-07-23T03:12:52;1.80;;;1.40;;
14141;SDS011;7151;52.246;4.820;2022-07-23T03:15:17;3.70;;;1.43;;
14141;SDS011;7151;52.246;4.820;2022-07-23T03:17:43;1.10;;;1.00;;
14141;SDS011;7151;52.246;4.820;2022-07-23T03:20:09;1.87;;;1.67;;
14141;SDS011;7151;52.246;4.820;2022-07-23T03:22:35;2.03;;;1.50;;
14141;SDS011;7151;52.246;4.820;2022-07-23T03:25:00;2.27;;;1.47;;
14141;SDS011;7151;52.246;4.820;2022-07-23T03:27:28;4.37;;;1.47;;
14141;SDS011;7151;52.246;4.820;2022-07-23T03:29:55;2.00;;;1.63;;
14141;SDS011;7151;52.246;4.820;2022-07-23T03:32:23;2.10;;;1.70;;
14141;SDS011;7151;52.246;4.820;2022-07-23T03:34:49;2.37;;;1.40;;
14141;SDS011;7151;52.246;4.820;2022-07-23T03:37:15;1.60;;;1.50;;
14141;SDS011;7151;52.246;4.820;2022-07-23T03:39:41;2.67;;;1.40;;
14141;SDS011;7151;52.246;4.820;2022-07-23T03:42:07;1.83;;;1.47;;
14141;SDS011;7151;52.246;4.820;2022-07-23T03:44:33;1.40;;;1.10;;
14141;SDS011;7151;52.246;4.820;2022-07-23T03:46:59;3.07;;;1.67;;
14141;SDS011;7151;52.246;4.820;2022-07-23T03:49:24;1.80;;;1.40;;
14141;SDS011;7151;52.246;4.820;2022-07-23T03:51:50;2.00;;;1.53;;
14141;SDS011;7151;52.246;4.820;2022-07-23T03:54:15;2.20;;;1.70;;
14141;SDS011;7151;52.246;4.820;2022-07-23T03:56:41;2.07;;;1.40;;
14141;SDS011;7151;52.246;4.820;2022-07-23T03:59:07;2.83;;;1.90;;
14141;SDS011;7151;52.246;4.820;2022-07-23T04:01:34;1.73;;;1.63;;
14141;SDS011;7151;52.246;4.820;2022-07-23T04:03:59;2.90;;;1.93;;
14141;SDS011;7151;52.246;4.820;2022-07-23T04:06:25;3.10;;;1.70;;
14141;SDS011;7151;52.246;4.820;2022-07-23T04:08:51;1.83;;;1.50;;
14141;SDS011;7151;52.246;4.820;2022-07-23T04:11:16;3.77;;;2.17;;
14141;SDS011;7151;52.246;4.820;2022-07-23T04:13:42;1.97;;;1.87;;
14141;SDS011;7151;52.246;4.820;2022-07-23T04:16:07;2.33;;;2.13;;
14141;SDS011;7151;52.246;4.820;2022-07-23T04:18:33;4.53;;;1.83;;
14141;SDS011;7151;52.246;4.820;2022-07-23T04:20:58;2.30;;;1.53;;
14141;SDS011;7151;52.246;4.820;2022-07-23T04:23:24;1.90;;;1.60;;
14141;SDS011;7151;52.246;4.820;2022-07-23T04:25:49;3.37;;;1.90;;
14141;SDS011;7151;52.246;4.820;2022-07-23T04:28:15;3.07;;;1.80;;
14141;SDS011;7151;52.246;4.820;2022-07-23T04:30:40;3.20;;;1.87;;
14141;SDS011;7151;52.246;4.820;2022-07-23T04:33:06;2.43;;;1.97;;
14141;SDS011;7151;52.246;4.820;2022-07-23T04:35:35;5.27;;;1.47;;
14141;SDS011;7151;52.246;4.820;2022-07-23T04:38:01;2.30;;;1.37;;
14141;SDS011;7151;52.246;4.820;2022-07-23T04:40:27;3.67;;;2.03;;
14141;SDS011;7151;52.246;4.820;2022-07-23T04:42:53;5.10;;;1.97;;
14141;SDS011;7151;52.246;4.820;2022-07-23T04:45:19;5.90;;;1.90;;
14141;SDS011;7151;52.246;4.820;2022-07-23T04:47:45;1.60;;;1.50;;
14141;SDS011;7151;52.246;4.820;2022-07-23T04:50:11;1.90;;;1.70;;
14141;SDS011;7151;52.246;4.820;2022-07-23T04:52:37;2.40;;;1.77;;
14141;SDS011;7151;52.246;4.820;2022-07-23T04:55:03;4.07;;;2.10;;
14141;SDS011;7151;52.246;4.820;2022-07-23T04:57:29;3.77;;;2.27;;
14141;SDS011;7151;52.246;4.820;2022-07-23T04:59:54;2.87;;;2.13;;
14141;SDS011;7151;52.246;4.820;2022-07-23T05:02:20;4.57;;;2.30;;
14141;SDS011;7151;52.246;4.820;2022-07-23T05:04:45;3.53;;;1.80;;
14141;SDS011;7151;52.246;4.820;2022-07-23T05:07:11;3.23;;;1.93;;
14141;SDS011;7151;52.246;4.820;2022-07-23T05:09:36;6.77;;;2.30;;
14141;SDS011;7151;52.246;4.820;2022-07-23T05:12:02;1.90;;;1.57;;
14141;SDS011;7151;52.246;4.820;2022-07-23T05:14:28;2.13;;;1.93;;
14141;SDS011;7151;52.246;4.820;2022-07-23T05:16:54;3.03;;;1.70;;
14141;SDS011;7151;52.246;4.820;2022-07-23T05:19:19;2.50;;;1.80;;
14141;SDS011;7151;52.246;4.820;2022-07-23T05:21:45;1.97;;;1.77;;
14141;SDS011;7151;52.246;4.820;2022-07-23T05:24:10;2.20;;;1.70;;
14141;SDS011;7151;52.246;4.820;2022-07-23T05:26:36;4.03;;;1.90;;
14141;SDS011;7151;52.246;4.820;2022-07-23T05:29:01;2.10;;;1.60;;
14141;SDS011;7151;52.246;4.820;2022-07-23T05:31:27;3.90;;;1.60;;
14141;SDS011;7151;52.246;4.820;2022-07-23T05:33:52;2.13;;;1.50;;
14141;SDS011;7151;52.246;4.820;2022-07-23T05:36:18;1.73;;;1.53;;
14141;SDS011;7151;52.246;4.820;2022-07-23T05:38:43;2.67;;;1.50;;
14141;SDS011;7151;52.246;4.820;2022-07-23T05:41:09;1.93;;;1.37;;
14141;SDS011;7151;52.246;4.820;2022-07-23T05:43:35;2.87;;;1.50;;
14141;SDS011;7151;52.246;4.820;2022-07-23T05:46:00;2.40;;;1.23;;
14141;SDS011;7151;52.246;4.820;2022-07-23T05:48:26;3.27;;;1.30;;
14141;SDS011;7151;52.246;4.820;2022-07-23T05:50:51;2.27;;;1.13;;
14141;SDS011;7151;52.246;4.820;2022-07-23T05:53:17;1.53;;;1.43;;
14141;SDS011;7151;52.246;4.820;2022-07-23T05:55:43;1.20;;;1.10;;
14141;SDS011;7151;52.246;4.820;2022-07-23T05:58:08;2.77;;;1.07;;
14141;SDS011;7151;52.246;4.820;2022-07-23T06:00:34;4.00;;;1.20;;
14141;SDS011;7151;52.246;4.820;2022-07-23T06:03:00;2.43;;;1.40;;
14141;SDS011;7151;52.246;4.820;2022-07-23T06:05:25;1.70;;;1.60;;
14141;SDS011;7151;52.246;4.820;2022-07-23T06:07:51;1.67;;;1.43;;
14141;SDS011;7151;52.246;4.820;2022-07-23T06:10:17;2.20;;;1.10;;
14141;SDS011;7151;52.246;4.820;2022-07-23T06:12:43;1.90;;;1.10;;
14141;SDS011;7151;52.246;4.820;2022-07-23T06:15:09;1.70;;;1.00;;
14141;SDS011;7151;52.246;4.820;2022-07-23T06:17:36;0.80;;;0.80;;
14141;SDS011;7151;52.246;4.820;2022-07-23T06:20:04;0.80;;;0.80;;
14141;SDS011;7151;52.246;4.820;2022-07-23T06:22:31;2.90;;;1.33;;
14141;SDS011;7151;52.246;4.820;2022-07-23T06:24:56;2.13;;;1.10;;
14141;SDS011;7151;52.246;4.820;2022-07-23T06:27:22;2.07;;;0.70;;
14141;SDS011;7151;52.246;4.820;2022-07-23T06:29:47;1.00;;;0.90;;
14141;SDS011;7151;52.246;4.820;2022-07-23T06:32:13;1.77;;;0.73;;
14141;SDS011;7151;52.246;4.820;2022-07-23T06:34:38;1.53;;;0.83;;
14141;SDS011;7151;52.246;4.820;2022-07-23T06:37:04;1.87;;;1.00;;
14141;SDS011;7151;52.246;4.820;2022-07-23T06:39:30;2.63;;;0.90;;
14141;SDS011;7151;52.246;4.820;2022-07-23T06:41:55;2.10;;;1.10;;
14141;SDS011;7151;52.246;4.820;2022-07-23T06:44:21;0.93;;;0.80;;
14141;SDS011;7151;52.246;4.820;2022-07-23T06:46:46;1.83;;;1.10;;
14141;SDS011;7151;52.246;4.820;2022-07-23T06:49:12;0.87;;;0.67;;
14141;SDS011;7151;52.246;4.820;2022-07-23T06:51:37;1.77;;;0.90;;
14141;SDS011;7151;52.246;4.820;2022-07-23T06:54:04;0.97;;;0.97;;
14141;SDS011;7151;52.246;4.820;2022-07-23T06:56:30;1.43;;;0.73;;
14141;SDS011;7151;52.246;4.820;2022-07-23T06:58:55;0.90;;;0.77;;
14141;SDS011;7151;52.246;4.820;2022-07-23T07:01:21;1.20;;;1.03;;
14141;SDS011;7151;52.246;4.820;2022-07-23T07:03:46;1.33;;;0.70;;
14141;SDS011;7151;52.246;4.820;2022-07-23T07:06:12;1.77;;;0.90;;
14141;SDS011;7151;52.246;4.820;2022-07-23T07:08:38;1.70;;;1.20;;
14141;SDS011;7151;52.246;4.820;2022-07-23T07:11:03;1.43;;;0.67;;
14141;SDS011;7151;52.246;4.820;2022-07-23T07:13:29;1.00;;;0.90;;
14141;SDS011;7151;52.246;4.820;2022-07-23T07:15:55;2.90;;;0.90;;
14141;SDS011;7151;52.246;4.820;2022-07-23T07:18:20;2.10;;;1.10;;
14141;SDS011;7151;52.246;4.820;2022-07-23T07:20:46;1.63;;;0.80;;
14141;SDS011;7151;52.246;4.820;2022-07-23T07:23:12;1.90;;;1.10;;
14141;SDS011;7151;52.246;4.820;2022-07-23T07:25:37;2.87;;;1.27;;
14141;SDS011;7151;52.246;4.820;2022-07-23T07:28:03;2.17;;;0.90;;
14141;SDS011;7151;52.246;4.820;2022-07-23T07:30:29;1.37;;;0.90;;
14141;SDS011;7151;52.246;4.820;2022-07-23T07:32:54;1.40;;;1.30;;
14141;SDS011;7151;52.246;4.820;2022-07-23T07:35:20;2.07;;;1.33;;
14141;SDS011;7151;52.246;4.820;2022-07-23T07:37:45;3.13;;;1.07;;
14141;SDS011;7151;52.246;4.820;2022-07-23T07:40:11;1.00;;;0.80;;
14141;SDS011;7151;52.246;4.820;2022-07-23T07:42:46;2.43;;;1.30;;
14141;SDS011;7151;52.246;4.820;2022-07-23T07:45:13;4.77;;;1.33;;
14141;SDS011;7151;52.246;4.820;2022-07-23T07:47:38;2.60;;;1.07;;
14141;SDS011;7151;52.246;4.820;2022-07-23T07:50:04;3.30;;;1.17;;
14141;SDS011;7151;52.246;4.820;2022-07-23T07:52:30;2.87;;;1.03;;
14141;SDS011;7151;52.246;4.820;2022-07-23T07:54:55;2.60;;;1.00;;
14141;SDS011;7151;52.246;4.820;2022-07-23T07:57:21;1.80;;;1.17;;
14141;SDS011;7151;52.246;4.820;2022-07-23T07:59:46;2.10;;;0.93;;
14141;SDS011;7151;52.246;4.820;2022-07-23T08:02:12;1.10;;;0.67;;
14141;SDS011;7151;52.246;4.820;2022-07-23T08:04:37;1.43;;;0.83;;
14141;SDS011;7151;52.246;4.820;2022-07-23T08:07:03;1.50;;;1.00;;
14141;SDS011;7151;52.246;4.820;2022-07-23T08:09:29;2.07;;;1.17;;
14141;SDS011;7151;52.246;4.820;2022-07-23T08:11:54;1.13;;;1.00;;
14141;SDS011;7151;52.246;4.820;2022-07-23T08:14:20;1.77;;;0.80;;
14141;SDS011;7151;52.246;4.820;2022-07-23T08:16:45;1.20;;;0.80;;
14141;SDS011;7151;52.246;4.820;2022-07-23T08:19:11;1.17;;;1.10;;
14141;SDS011;7151;52.246;4.820;2022-07-23T08:21:36;0.70;;;0.70;;
14141;SDS011;7151;52.246;4.820;2022-07-23T08:24:02;2.50;;;1.03;;
14141;SDS011;7151;52.246;4.820;2022-07-23T08:26:28;2.00;;;0.80;;
14141;SDS011;7151;52.246;4.820;2022-07-23T08:28:53;1.73;;;0.90;;
14141;SDS011;7151;52.246;4.820;2022-07-23T08:31:19;1.97;;;0.80;;
14141;SDS011;7151;52.246;4.820;2022-07-23T08:33:44;1.53;;;0.90;;
14141;SDS011;7151;52.246;4.820;2022-07-23T08:36:10;1.40;;;0.90;;
14141;SDS011;7151;52.246;4.820;2022-07-23T08:38:35;0.97;;;0.87;;
14141;SDS011;7151;52.246;4.820;2022-07-23T08:41:01;0.90;;;0.77;;
14141;SDS011;7151;52.246;4.820;2022-07-23T08:43:29;3.93;;;1.10;;
14141;SDS011;7151;52.246;4.820;2022-07-23T08:45:56;1.03;;;0.80;;
14141;SDS011;7151;52.246;4.820;2022-07-23T08:48:24;1.47;;;1.10;;
14141;SDS011;7151;52.246;4.820;2022-07-23T08:50:54;0.87;;;0.83;;
14141;SDS011;7151;52.246;4.820;2022-07-23T08:53:22;1.60;;;0.73;;
14141;SDS011;7151;52.246;4.820;2022-07-23T08:55:50;1.90;;;0.80;;
14141;SDS011;7151;52.246;4.820;2022-07-23T08:58:18;0.90;;;0.63;;
14141;SDS011;7151;52.246;4.820;2022-07-23T09:00:44;1.20;;;1.10;;
14141;SDS011;7151;52.246;4.820;2022-07-23T09:03:14;1.17;;;0.70;;
14141;SDS011;7151;52.246;4.820;2022-07-23T09:05:44;1.33;;;1.03;;
14141;SDS011;7151;52.246;4.820;2022-07-23T09:08:12;0.70;;;0.63;;
14141;SDS011;7151;52.246;4.820;2022-07-23T09:13:24;1.10;;;0.80;;
14141;SDS011;7151;52.246;4.820;2022-07-23T09:15:55;1.10;;;0.93;;
14141;SDS011;7151;52.246;4.820;2022-07-23T09:18:35;3.10;;;1.17;;
14141;SDS011;7151;52.246;4.820;2022-07-23T09:21:22;0.93;;;0.90;;
14141;SDS011;7151;52.246;4.820;2022-07-23T09:24:01;2.13;;;1.20;;
14141;SDS011;7151;52.246;4.820;2022-07-23T09:26:43;1.40;;;0.97;;
14141;SDS011;7151;52.246;4.820;2022-07-23T09:29:18;0.60;;;0.60;;
14141;SDS011;7151;52.246;4.820;2022-07-23T09:39:36;1.50;;;0.70;;
14141;SDS011;7151;52.246;4.820;2022-07-23T09:42:21;4.10;;;1.10;;
14141;SDS011;7151;52.246;4.820;2022-07-23T09:44:51;1.40;;;1.03;;
14141;SDS011;7151;52.246;4.820;2022-07-23T09:47:19;5.63;;;1.10;;
14141;SDS011;7151;52.246;4.820;2022-07-23T09:52:47;4.50;;;1.13;;
14141;SDS011;7151;52.246;4.820;2022-07-23T09:55:14;2.00;;;1.17;;
14141;SDS011;7151;52.246;4.820;2022-07-23T09:57:42;1.23;;;1.03;;
14141;SDS011;7151;52.246;4.820;2022-07-23T10:00:10;1.60;;;1.07;;
14141;SDS011;7151;52.246;4.820;2022-07-23T10:02:36;1.73;;;1.17;;
14141;SDS011;7151;52.246;4.820;2022-07-23T10:05:03;2.03;;;1.20;;
14141;SDS011;7151;52.246;4.820;2022-07-23T10:07:34;1.20;;;0.80;;
14141;SDS011;7151;52.246;4.820;2022-07-23T10:10:02;2.87;;;1.53;;
14141;SDS011;7151;52.246;4.820;2022-07-23T10:12:29;3.47;;;1.60;;
14141;SDS011;7151;52.246;4.820;2022-07-23T10:15:13;1.40;;;1.30;;
14141;SDS011;7151;52.246;4.820;2022-07-23T10:17:39;2.40;;;1.60;;
14141;SDS011;7151;52.246;4.820;2022-07-23T10:20:05;1.67;;;1.00;;
14141;SDS011;7151;52.246;4.820;2022-07-23T10:22:33;1.83;;;1.10;;
14141;SDS011;7151;52.246;4.820;2022-07-23T10:41:30;2.23;;;1.57;;
14141;SDS011;7151;52.246;4.820;2022-07-23T10:49:29;2.10;;;1.67;;
14141;SDS011;7151;52.246;4.820;2022-07-23T10:54:47;1.70;;;1.33;;
14141;SDS011;7151;52.246;4.820;2022-07-23T10:57:18;1.83;;;1.50;;
14141;SDS011;7151;52.246;4.820;2022-07-23T11:02:26;2.00;;;1.50;;
14141;SDS011;7151;52.246;4.820;2022-07-23T11:04:54;1.97;;;1.20;;
14141;SDS011;7151;52.246;4.820;2022-07-23T11:07:24;2.07;;;1.23;;
14141;SDS011;7151;52.246;4.820;2022-07-23T11:09:49;2.07;;;1.10;;
14141;SDS011;7151;52.246;4.820;2022-07-23T11:17:33;2.20;;;1.10;;
14141;SDS011;7151;52.246;4.820;2022-07-23T11:25:09;2.77;;;1.53;;
14141;SDS011;7151;52.246;4.820;2022-07-23T11:27:40;2.47;;;1.43;;
14141;SDS011;7151;52.246;4.820;2022-07-23T11:30:07;3.40;;;1.50;;
14141;SDS011;7151;52.246;4.820;2022-07-23T11:32:35;2.20;;;1.20;;
14141;SDS011;7151;52.246;4.820;2022-07-23T11:37:47;3.83;;;1.57;;
14141;SDS011;7151;52.246;4.820;2022-07-23T11:40:14;2.13;;;1.47;;
14141;SDS011;7151;52.246;4.820;2022-07-23T11:42:57;4.17;;;1.60;;
14141;SDS011;7151;52.246;4.820;2022-07-23T11:45:29;1.87;;;1.40;;
14141;SDS011;7151;52.246;4.820;2022-07-23T11:48:00;2.13;;;1.10;;
14141;SDS011;7151;52.246;4.820;2022-07-23T11:50:27;1.53;;;1.37;;
14141;SDS011;7151;52.246;4.820;2022-07-23T11:52:53;1.80;;;1.37;;
14141;SDS011;7151;52.246;4.820;2022-07-23T11:55:19;2.90;;;1.40;;
14141;SDS011;7151;52.246;4.820;2022-07-23T11:57:45;3.43;;;1.40;;
14141;SDS011;7151;52.246;4.820;2022-07-23T12:00:13;1.50;;;1.40;;
14141;SDS011;7151;52.246;4.820;2022-07-23T12:02:44;1.70;;;1.40;;
14141;SDS011;7151;52.246;4.820;2022-07-23T12:05:31;2.87;;;1.30;;
14141;SDS011;7151;52.246;4.820;2022-07-23T12:07:59;1.50;;;1.40;;
14141;SDS011;7151;52.246;4.820;2022-07-23T12:10:44;2.60;;;1.40;;
14141;SDS011;7151;52.246;4.820;2022-07-23T12:13:14;2.30;;;1.53;;
14141;SDS011;7151;52.246;4.820;2022-07-23T12:15:45;1.70;;;1.40;;
14141;SDS011;7151;52.246;4.820;2022-07-23T12:18:19;2.10;;;1.50;;
14141;SDS011;7151;52.246;4.820;2022-07-23T12:20:48;2.27;;;1.47;;
14141;SDS011;7151;52.246;4.820;2022-07-23T12:23:17;2.90;;;1.67;;
14141;SDS011;7151;52.246;4.820;2022-07-23T12:25:44;1.50;;;1.30;;
14141;SDS011;7151;52.246;4.820;2022-07-23T12:30:45;1.80;;;1.33;;
14141;SDS011;7151;52.246;4.820;2022-07-23T12:33:23;1.93;;;1.40;;
14141;SDS011;7151;52.246;4.820;2022-07-23T12:35:51;1.70;;;1.20;;
14141;SDS011;7151;52.246;4.820;2022-07-23T12:38:19;1.50;;;1.37;;
14141;SDS011;7151;52.246;4.820;2022-07-23T12:40:47;2.27;;;1.30;;
14141;SDS011;7151;52.246;4.820;2022-07-23T12:43:21;1.30;;;1.20;;
14141;SDS011;7151;52.246;4.820;2022-07-23T12:48:32;2.67;;;1.20;;
14141;SDS011;7151;52.246;4.820;2022-07-23T12:51:05;1.63;;;1.23;;
14141;SDS011;7151;52.246;4.820;2022-07-23T12:53:32;3.58;;;1.40;;
14141;SDS011;7151;52.246;4.820;2022-07-23T12:59:01;2.22;;;1.20;;
14141;SDS011;7151;52.246;4.820;2022-07-23T13:01:28;3.70;;;1.40;;
14141;SDS011;7151;52.246;4.820;2022-07-23T13:06:33;2.05;;;1.30;;
14141;SDS011;7151;52.246;4.820;2022-07-23T13:09:00;1.40;;;1.30;;
14141;SDS011;7151;52.246;4.820;2022-07-23T13:11:27;1.60;;;1.48;;
14141;SDS011;7151;52.246;4.820;2022-07-23T13:13:53;1.77;;;1.23;;
14141;SDS011;7151;52.246;4.820;2022-07-23T13:16:19;0.90;;;0.90;;
14141;SDS011;7151;52.246;4.820;2022-07-23T13:18:44;2.10;;;1.20;;
14141;SDS011;7151;52.246;4.820;2022-07-23T13:21:10;1.42;;;1.23;;
14141;SDS011;7151;52.246;4.820;2022-07-23T13:23:35;1.10;;;1.00;;
14141;SDS011;7151;52.246;4.820;2022-07-23T13:26:02;1.70;;;1.30;;
14141;SDS011;7151;52.246;4.820;2022-07-23T13:28:28;1.70;;;1.10;;
14141;SDS011;7151;52.246;4.820;2022-07-23T13:30:53;1.35;;;0.93;;
14141;SDS011;7151;52.246;4.820;2022-07-23T13:33:20;2.05;;;1.52;;
14141;SDS011;7151;52.246;4.820;2022-07-23T13:35:47;1.20;;;1.10;;
14141;SDS011;7151;52.246;4.820;2022-07-23T13:38:13;2.05;;;1.42;;
14141;SDS011;7151;52.246;4.820;2022-07-23T13:40:40;2.47;;;1.35;;
14141;SDS011;7151;52.246;4.820;2022-07-23T13:43:11;2.85;;;1.50;;
14141;SDS011;7151;52.246;4.820;2022-07-23T13:45:39;1.38;;;1.20;;
14141;SDS011;7151;52.246;4.820;2022-07-23T13:48:07;1.63;;;1.20;;
14141;SDS011;7151;52.246;4.820;2022-07-23T13:50:33;1.38;;;1.20;;
14141;SDS011;7151;52.246;4.820;2022-07-23T13:53:04;1.73;;;1.40;;
14141;SDS011;7151;52.246;4.820;2022-07-23T13:55:31;1.73;;;1.40;;
14141;SDS011;7151;52.246;4.820;2022-07-23T13:57:57;1.85;;;1.58;;
14141;SDS011;7151;52.246;4.820;2022-07-23T14:00:23;3.10;;;1.58;;
14141;SDS011;7151;52.246;4.820;2022-07-23T14:02:49;4.18;;;1.90;;
14141;SDS011;7151;52.246;4.820;2022-07-23T14:05:14;3.80;;;1.55;;
14141;SDS011;7151;52.246;4.820;2022-07-23T14:07:40;1.75;;;1.50;;
14141;SDS011;7151;52.246;4.820;2022-07-23T14:10:08;3.47;;;1.33;;
14141;SDS011;7151;52.246;4.820;2022-07-23T14:12:34;1.95;;;1.27;;
14141;SDS011;7151;52.246;4.820;2022-07-23T14:15:00;3.00;;;2.30;;
14141;SDS011;7151;52.246;4.820;2022-07-23T14:17:26;2.15;;;1.70;;
14141;SDS011;7151;52.246;4.820;2022-07-23T14:19:51;1.58;;;1.48;;
14141;SDS011;7151;52.246;4.820;2022-07-23T14:22:17;2.83;;;1.88;;
14141;SDS011;7151;52.246;4.820;2022-07-23T14:24:43;2.70;;;1.65;;
14141;SDS011;7151;52.246;4.820;2022-07-23T14:27:08;1.98;;;1.73;;
14141;SDS011;7151;52.246;4.820;2022-07-23T14:29:34;4.30;;;2.00;;
14141;SDS011;7151;52.246;4.820;2022-07-23T14:32:00;1.90;;;1.70;;
14141;SDS011;7151;52.246;4.820;2022-07-23T14:34:26;2.00;;;1.70;;
14141;SDS011;7151;52.246;4.820;2022-07-23T14:36:52;1.70;;;1.60;;
14141;SDS011;7151;52.246;4.820;2022-07-23T14:39:18;4.57;;;1.58;;
14141;SDS011;7151;52.246;4.820;2022-07-23T14:41:43;1.70;;;1.52;;
14141;SDS011;7151;52.246;4.820;2022-07-23T14:44:09;2.25;;;1.90;;
14141;SDS011;7151;52.246;4.820;2022-07-23T14:46:35;1.67;;;1.58;;
14141;SDS011;7151;52.246;4.820;2022-07-23T14:49:01;2.35;;;1.75;;
14141;SDS011;7151;52.246;4.820;2022-07-23T14:51:27;2.33;;;1.70;;
14141;SDS011;7151;52.246;4.820;2022-07-23T14:53:53;2.42;;;1.90;;
14141;SDS011;7151;52.246;4.820;2022-07-23T14:56:18;2.03;;;1.60;;
14141;SDS011;7151;52.246;4.820;2022-07-23T14:58:44;2.05;;;1.52;;
14141;SDS011;7151;52.246;4.820;2022-07-23T15:01:10;1.70;;;1.60;;
14141;SDS011;7151;52.246;4.820;2022-07-23T15:03:35;2.67;;;1.60;;
14141;SDS011;7151;52.246;4.820;2022-07-23T15:06:01;1.73;;;1.60;;
14141;SDS011;7151;52.246;4.820;2022-07-23T15:08:26;2.63;;;1.88;;
14141;SDS011;7151;52.246;4.820;2022-07-23T15:10:52;1.58;;;1.30;;
14141;SDS011;7151;52.246;4.820;2022-07-23T15:13:17;2.38;;;1.55;;
14141;SDS011;7151;52.246;4.820;2022-07-23T15:15:43;4.40;;;1.52;;
14141;SDS011;7151;52.246;4.820;2022-07-23T15:18:09;2.05;;;1.58;;
14141;SDS011;7151;52.246;4.820;2022-07-23T15:20:36;1.98;;;1.55;;
14141;SDS011;7151;52.246;4.820;2022-07-23T15:23:02;1.50;;;1.40;;
14141;SDS011;7151;52.246;4.820;2022-07-23T15:25:28;2.00;;;1.50;;
14141;SDS011;7151;52.246;4.820;2022-07-23T15:27:54;2.05;;;1.83;;
14141;SDS011;7151;52.246;4.820;2022-07-23T15:30:21;3.05;;;1.80;;
14141;SDS011;7151;52.246;4.820;2022-07-23T15:32:52;3.10;;;2.05;;
14141;SDS011;7151;52.246;4.820;2022-07-23T15:35:18;4.28;;;1.45;;
14141;SDS011;7151;52.246;4.820;2022-07-23T15:37:44;1.95;;;1.35;;
14141;SDS011;7151;52.246;4.820;2022-07-23T15:40:11;1.58;;;1.48;;
14141;SDS011;7151;52.246;4.820;2022-07-23T15:42:37;1.20;;;1.10;;
14141;SDS011;7151;52.246;4.820;2022-07-23T15:45:03;1.65;;;1.55;;
14141;SDS011;7151;52.246;4.820;2022-07-23T15:47:29;2.13;;;1.08;;
14141;SDS011;7151;52.246;4.820;2022-07-23T15:49:54;1.40;;;1.30;;
14141;SDS011;7151;52.246;4.820;2022-07-23T15:52:20;2.00;;;1.35;;
14141;SDS011;7151;52.246;4.820;2022-07-23T15:54:45;1.13;;;1.10;;
14141;SDS011;7151;52.246;4.820;2022-07-23T15:57:11;2.25;;;1.83;;
14141;SDS011;7151;52.246;4.820;2022-07-23T15:59:37;2.22;;;1.58;;
14141;SDS011;7151;52.246;4.820;2022-07-23T16:02:03;1.10;;;0.90;;